createdAt,value
2024-03-12T00:01:45.103Z,12.40
2024-03-12T00:04:12.780Z,11.02
2024-03-12T00:06:43.726Z,7.78
2024-03-12T00:09:11.315Z,6.32
2024-03-12T00:11:38.814Z,8.07
2024-03-12T00:14:06.286Z,9.40
2024-03-12T00:16:35.487Z,12.75
2024-03-12T00:19:04.220Z,11.32
2024-03-12T00:21:31.944Z,9.57
2024-03-12T00:24:00.419Z,13.38
2024-03-12T00:26:29.734Z,9.43
2024-03-12T00:28:57.061Z,9.15
2024-03-12T00:31:25.982Z,10.30
2024-03-12T00:33:53.619Z,11.45
2024-03-12T00:36:20.948Z,7.18
2024-03-12T00:38:48.354Z,12.52
2024-03-12T00:41:15.789Z,8.07
2024-03-12T00:43:43.933Z,9.25
2024-03-12T00:46:12.210Z,6.65
2024-03-12T00:48:39.557Z,11.60
2024-03-12T00:51:06.963Z,8.98
2024-03-12T00:53:34.298Z,11.88
2024-03-12T00:56:02.833Z,7.72
2024-03-12T00:58:30.303Z,12.00
2024-03-12T01:00:59.344Z,7.72
2024-03-12T01:03:27.689Z,7.88
2024-03-12T01:05:55.373Z,9.25
2024-03-12T01:08:23.283Z,9.75
2024-03-12T01:10:50.596Z,8.48
2024-03-12T01:13:18.018Z,11.50
2024-03-12T01:15:47.164Z,10.95
2024-03-12T01:18:14.597Z,12.38
2024-03-12T01:20:41.865Z,8.73
2024-03-12T01:23:10.161Z,10.32
2024-03-12T01:25:38.527Z,9.77
2024-03-12T01:28:08.310Z,10.90
2024-03-12T01:30:38.136Z,12.77
2024-03-12T01:33:07.671Z,9.63
2024-03-12T01:35:40.824Z,7.75
2024-03-12T01:38:11.904Z,9.57
2024-03-12T01:40:40.704Z,9.48
2024-03-12T01:43:08.961Z,7.80
2024-03-12T01:45:37.962Z,9.38
2024-03-12T01:48:09.535Z,7.60
2024-03-12T01:50:41.129Z,7.78
2024-03-12T01:53:09.920Z,11.85
2024-03-12T01:55:45.945Z,13.10
2024-03-12T01:58:19.864Z,11.18
2024-03-12T02:00:48.293Z,9.02
2024-03-12T02:03:20.348Z,9.77
2024-03-12T02:05:49.550Z,10.07
2024-03-12T02:08:18.184Z,8.32
2024-03-12T02:10:47.399Z,7.28
2024-03-12T02:13:14.988Z,11.25
2024-03-12T02:15:43.272Z,8.10
2024-03-12T02:18:10.999Z,6.50
2024-03-12T02:20:39.676Z,7.22
2024-03-12T02:23:07.324Z,9.07
2024-03-12T02:25:34.665Z,7.93
2024-03-12T02:28:04.418Z,9.90
2024-03-12T02:30:32.391Z,7.13
2024-03-12T02:32:59.806Z,5.57
2024-03-12T02:35:28.534Z,7.55
2024-03-12T02:37:56.465Z,9.02
2024-03-12T02:40:25.445Z,6.65
2024-03-12T02:42:53.035Z,9.38
2024-03-12T02:45:22.505Z,7.90
2024-03-12T02:47:50.101Z,7.85
2024-03-12T02:50:17.852Z,9.98
2024-03-12T02:52:47.035Z,7.85
2024-03-12T02:55:15.013Z,7.50
2024-03-12T02:57:42.968Z,8.18
2024-03-12T03:00:14.711Z,7.07
2024-03-12T03:02:45.976Z,9.95
2024-03-12T03:05:14.720Z,4.55
2024-03-12T03:07:42.654Z,6.30
2024-03-12T03:10:12.345Z,8.63
2024-03-12T03:12:41.142Z,6.32
2024-03-12T03:15:13.692Z,8.15
2024-03-12T03:17:45.129Z,7.68
2024-03-12T03:20:13.896Z,11.18
2024-03-12T03:22:41.361Z,5.53
2024-03-12T03:25:10.578Z,7.30
2024-03-12T03:27:37.898Z,7.85
2024-03-12T03:30:08.406Z,7.22
2024-03-12T03:32:36.867Z,6.18
2024-03-12T03:35:08.306Z,6.78
2024-03-12T03:37:41.927Z,8.60
2024-03-12T03:40:12.707Z,8.48
2024-03-12T03:42:40.787Z,5.97
2024-03-12T03:45:08.389Z,8.40
2024-03-12T03:47:36.274Z,8.38
2024-03-12T03:50:08.766Z,7.18
2024-03-12T03:52:36.528Z,7.38
2024-03-12T03:55:05.320Z,7.95
2024-03-12T03:57:33.152Z,7.95
2024-03-12T04:00:00.873Z,11.48
2024-03-12T04:02:28.518Z,8.43
2024-03-12T04:04:56.050Z,8.93
2024-03-12T04:07:26.670Z,7.05
2024-03-12T04:09:56.112Z,9.55
2024-03-12T04:12:24.065Z,14.13
2024-03-12T04:14:51.780Z,7.32
2024-03-12T04:17:21.010Z,5.57
2024-03-12T04:19:49.872Z,9.25
2024-03-12T04:22:20.689Z,7.88
2024-03-12T04:24:48.257Z,8.98
2024-03-12T04:27:16.436Z,8.65
2024-03-12T04:29:44.086Z,10.30
2024-03-12T04:32:11.595Z,7.25
2024-03-12T04:34:39.073Z,8.80
2024-03-12T04:37:06.613Z,9.73
2024-03-12T04:39:34.173Z,9.90
2024-03-12T04:42:10.412Z,9.18
2024-03-12T04:44:37.845Z,9.70
2024-03-12T04:47:05.466Z,8.50
2024-03-12T04:49:32.871Z,9.25
2024-03-12T04:52:00.425Z,12.48
2024-03-12T04:54:28.497Z,9.80
2024-03-12T04:56:58.314Z,12.07
2024-03-12T04:59:25.671Z,11.25
2024-03-12T05:01:53.875Z,10.02
2024-03-12T05:04:26.317Z,6.70
2024-03-12T05:06:53.758Z,6.63
2024-03-12T05:09:21.179Z,9.40
2024-03-12T05:11:49.439Z,8.55
2024-03-12T05:14:18.264Z,7.57
2024-03-12T05:16:45.921Z,10.30
2024-03-12T05:19:13.562Z,10.02
2024-03-12T05:21:41.132Z,9.57
2024-03-12T05:24:08.717Z,7.50
2024-03-12T05:26:45.279Z,10.75
2024-03-12T05:29:13.518Z,10.73
2024-03-12T05:31:40.924Z,10.60
2024-03-12T05:34:19.269Z,11.27
2024-03-12T05:36:50.082Z,8.40
2024-03-12T05:39:22.301Z,8.98
2024-03-12T05:42:12.826Z,12.13
2024-03-12T05:44:58.790Z,10.63
2024-03-12T05:47:45.755Z,10.27
2024-03-12T05:50:18.386Z,12.68
2024-03-12T05:52:49.748Z,7.85
2024-03-12T05:55:17.362Z,10.77
2024-03-12T05:57:48.339Z,7.47
2024-03-12T06:00:16.900Z,10.50
2024-03-12T06:02:44.873Z,10.80
2024-03-12T06:05:15.028Z,11.15
2024-03-12T06:07:43.489Z,12.13
2024-03-12T06:10:11.213Z,10.82
2024-03-12T06:12:39.711Z,11.68
2024-03-12T06:15:07.882Z,12.63
2024-03-12T06:17:36.141Z,10.77
2024-03-12T06:20:09.281Z,11.38
2024-03-12T06:22:38.499Z,11.20
2024-03-12T06:25:07.126Z,8.82
2024-03-12T06:27:35.168Z,13.20
2024-03-12T06:30:02.483Z,9.82
2024-03-12T06:32:33.062Z,10.00
2024-03-12T06:35:00.581Z,9.27
2024-03-12T06:37:31.123Z,10.77
2024-03-12T06:40:00.265Z,9.85
2024-03-12T06:42:31.217Z,8.00
2024-03-12T06:45:01.991Z,7.50
2024-03-12T06:47:30.423Z,11.05
2024-03-12T06:50:00.217Z,8.77
2024-03-12T06:52:28.203Z,7.55
2024-03-12T06:54:55.730Z,9.52
2024-03-12T06:57:23.965Z,9.02
2024-03-12T06:59:51.628Z,11.80
2024-03-12T07:02:19.408Z,10.02
2024-03-12T07:04:50.170Z,8.18
2024-03-12T07:07:21.337Z,11.93
2024-03-12T07:09:49.780Z,12.65
2024-03-12T07:12:17.946Z,8.85
2024-03-12T07:14:47.216Z,8.82
2024-03-12T07:17:15.870Z,15.75
2024-03-12T07:19:44.432Z,10.70
2024-03-12T07:22:12.703Z,8.00
2024-03-12T07:24:43.063Z,9.55
2024-03-12T07:27:11.850Z,13.32
2024-03-12T07:29:39.164Z,8.73
2024-03-12T07:32:09.402Z,9.57
2024-03-12T07:34:38.475Z,8.07
2024-03-12T07:37:06.480Z,11.80
2024-03-12T07:39:36.060Z,7.97
2024-03-12T07:42:09.821Z,11.57
2024-03-12T07:44:38.305Z,11.07
2024-03-12T07:47:05.975Z,10.75
2024-03-12T07:49:38.373Z,12.38
2024-03-12T07:52:10.793Z,7.00
2024-03-12T07:54:42.157Z,13.50
2024-03-12T07:57:10.102Z,13.13
2024-03-12T07:59:37.948Z,8.07
2024-03-12T08:02:13.063Z,9.60
2024-03-12T08:04:46.059Z,8.05
2024-03-12T08:07:14.909Z,9.80
2024-03-12T08:09:45.788Z,11.00
2024-03-12T08:12:17.628Z,10.57
2024-03-12T08:14:46.072Z,8.43
2024-03-12T08:17:13.961Z,12.07
2024-03-12T08:19:44.775Z,8.98
2024-03-12T08:22:12.517Z,11.27
2024-03-12T08:24:40.636Z,10.07
2024-03-12T08:27:08.472Z,9.68
2024-03-12T08:29:35.966Z,7.57
2024-03-12T08:32:05.148Z,6.07
2024-03-12T08:34:32.524Z,7.72
2024-03-12T08:37:00.183Z,9.20
2024-03-12T08:39:29.829Z,4.45
2024-03-12T08:41:57.518Z,9.43
2024-03-12T08:44:25.262Z,8.77
2024-03-12T08:46:52.990Z,9.77
2024-03-12T08:49:20.380Z,10.45
2024-03-12T08:51:47.888Z,8.90
2024-03-12T08:54:15.614Z,10.10
2024-03-12T08:56:44.526Z,5.55
2024-03-12T09:02:05.928Z,7.07
2024-03-12T09:04:33.916Z,7.95
2024-03-12T09:07:02.008Z,10.30
2024-03-12T09:09:29.423Z,7.78
2024-03-12T09:11:58.323Z,7.43
2024-03-12T09:14:28.278Z,9.95
2024-03-12T09:16:55.644Z,4.88
2024-03-12T09:19:23.535Z,8.15
2024-03-12T09:21:50.832Z,5.47
2024-03-12T09:24:20.421Z,6.07
2024-03-12T09:26:47.782Z,4.65
2024-03-12T09:29:14.992Z,6.15
2024-03-12T09:31:43.657Z,4.35
2024-03-12T09:34:12.083Z,6.00
2024-03-12T09:36:39.994Z,8.77
2024-03-12T09:39:12.545Z,8.27
2024-03-12T09:41:53.707Z,6.57
2024-03-12T09:44:23.081Z,7.28
2024-03-12T09:46:50.680Z,5.95
2024-03-12T09:49:20.678Z,6.60
2024-03-12T09:51:48.280Z,5.65
2024-03-12T09:54:15.734Z,8.68
2024-03-12T09:56:44.465Z,8.98
2024-03-12T09:59:11.977Z,5.65
2024-03-12T10:01:42.028Z,7.03
2024-03-12T10:04:13.475Z,4.93
2024-03-12T10:06:41.210Z,5.70
2024-03-12T10:09:18.525Z,7.55
2024-03-12T10:11:48.757Z,4.95
2024-03-12T10:14:19.054Z,8.00
2024-03-12T10:16:46.722Z,7.25
2024-03-12T10:19:19.931Z,8.30
2024-03-12T10:24:23.056Z,5.38
2024-03-12T10:26:51.154Z,5.03
2024-03-12T10:29:22.420Z,5.05
2024-03-12T10:31:49.796Z,8.50
2024-03-12T10:34:22.007Z,6.55
2024-03-12T10:36:51.674Z,6.07
2024-03-12T10:39:27.456Z,7.57
2024-03-12T10:42:00.938Z,7.70
2024-03-12T10:44:30.302Z,6.10
2024-03-12T10:47:02.316Z,7.65
2024-03-12T10:49:30.767Z,5.68
2024-03-12T10:51:59.337Z,4.85
2024-03-12T10:54:32.108Z,9.45
2024-03-12T10:57:04.667Z,4.65
2024-03-12T10:59:34.403Z,2.95
2024-03-12T11:02:05.174Z,3.50
2024-03-12T11:04:36.734Z,6.82
2024-03-12T11:07:05.340Z,4.45
2024-03-12T11:09:34.889Z,3.70
2024-03-12T11:12:05.410Z,7.05
2024-03-12T11:14:33.000Z,3.67
2024-03-12T11:17:01.814Z,3.42
2024-03-12T11:19:30.959Z,3.30
2024-03-12T11:22:11.436Z,16.63
2024-03-12T11:24:46.516Z,11.23
2024-03-12T11:27:26.785Z,17.23
2024-03-12T11:30:07.251Z,10.32
2024-03-12T11:32:35.443Z,12.30
2024-03-12T11:35:18.265Z,7.80
2024-03-12T11:37:49.123Z,6.03
2024-03-12T11:40:33.749Z,5.60
2024-03-12T11:43:01.521Z,8.35
2024-03-12T11:45:43.940Z,8.45
2024-03-12T11:48:12.350Z,3.50
2024-03-12T11:50:41.429Z,6.22
2024-03-12T11:53:16.054Z,3.38
2024-03-12T11:56:17.261Z,4.32
2024-03-12T11:58:49.918Z,4.65
2024-03-12T12:01:20.632Z,3.83
2024-03-12T12:03:51.848Z,6.28
2024-03-12T12:06:20.948Z,3.17
2024-03-12T12:08:57.282Z,4.68
2024-03-12T12:11:30.040Z,5.38
2024-03-12T12:14:01.302Z,2.88
2024-03-12T12:16:30.406Z,3.55
2024-03-12T12:19:09.445Z,4.10
2024-03-12T12:21:37.949Z,4.63
2024-03-12T12:24:08.145Z,2.53
2024-03-12T12:26:37.768Z,2.22
2024-03-12T12:29:09.052Z,2.70
2024-03-12T12:31:38.031Z,2.33
2024-03-12T12:34:07.953Z,2.55
2024-03-12T12:36:41.814Z,3.63
2024-03-12T12:39:12.181Z,2.45
2024-03-12T12:41:45.577Z,5.55
2024-03-12T12:44:18.652Z,4.55
2024-03-12T12:46:49.670Z,3.13
2024-03-12T12:49:18.800Z,3.70
2024-03-12T12:51:47.852Z,3.63
2024-03-12T12:54:20.289Z,5.18
2024-03-12T12:56:48.276Z,5.05
2024-03-12T12:59:18.317Z,2.50
2024-03-12T13:01:49.815Z,4.60
2024-03-12T13:04:29.792Z,4.25
2024-03-12T13:07:02.695Z,3.35
2024-03-12T13:09:33.868Z,4.20
2024-03-12T13:12:05.349Z,3.80
2024-03-12T13:14:35.230Z,2.72
2024-03-12T13:17:05.752Z,6.10
2024-03-12T13:19:34.453Z,2.80
2024-03-12T13:22:10.569Z,3.45
2024-03-12T13:24:45.826Z,3.30
2024-03-12T13:27:16.874Z,3.95
2024-03-12T13:29:47.494Z,2.53
2024-03-12T13:32:16.184Z,4.95
2024-03-12T13:34:44.448Z,4.93
2024-03-12T13:37:14.060Z,6.75
2024-03-12T13:39:43.035Z,5.15
2024-03-12T13:42:11.971Z,4.18
2024-03-12T13:44:40.728Z,2.75
2024-03-12T13:47:09.702Z,1.65
2024-03-12T13:49:38.491Z,2.55
2024-03-12T13:52:06.376Z,3.35
2024-03-12T13:54:34.268Z,4.30
2024-03-12T13:57:01.954Z,3.17
2024-03-12T13:59:29.350Z,4.10
2024-03-12T14:01:58.095Z,3.45
2024-03-12T14:04:28.512Z,5.25
2024-03-12T14:06:57.415Z,3.85
2024-03-12T14:09:26.520Z,3.40
2024-03-12T14:11:54.008Z,3.45
2024-03-12T14:14:23.089Z,3.63
2024-03-12T14:16:53.047Z,3.60
2024-03-12T14:19:20.439Z,2.83
2024-03-12T14:21:48.204Z,3.58
2024-03-12T14:24:16.819Z,4.75
2024-03-12T14:26:44.660Z,2.55
2024-03-12T14:29:12.418Z,3.47
2024-03-12T14:31:42.989Z,1.67
2024-03-12T14:34:11.245Z,3.00
2024-03-12T14:36:39.197Z,3.88
2024-03-12T14:39:09.230Z,1.92
2024-03-12T14:41:37.438Z,3.95
2024-03-12T14:44:09.445Z,3.35
2024-03-12T14:46:42.418Z,2.17
2024-03-12T14:49:10.005Z,3.78
2024-03-12T14:51:37.353Z,4.50
2024-03-12T14:54:06.215Z,2.03
2024-03-12T14:56:34.990Z,3.58
2024-03-12T14:59:05.102Z,4.45
2024-03-12T15:01:32.966Z,3.55
2024-03-12T15:04:01.604Z,2.95
2024-03-12T15:06:28.920Z,4.22
2024-03-12T15:08:57.185Z,4.15
2024-03-12T15:11:24.714Z,4.95
2024-03-12T15:13:56.064Z,5.13
2024-03-12T15:16:23.510Z,5.20
2024-03-12T15:18:51.258Z,3.90
2024-03-12T15:21:19.281Z,5.93
2024-03-12T15:23:49.041Z,5.57
2024-03-12T15:26:16.354Z,6.05
2024-03-12T15:28:44.909Z,11.18
2024-03-12T15:31:13.427Z,6.28
2024-03-12T15:33:41.252Z,7.30
2024-03-12T15:36:09.346Z,4.53
2024-03-12T15:38:38.048Z,4.65
2024-03-12T15:41:09.368Z,3.65
2024-03-12T15:43:39.255Z,5.47
2024-03-12T15:46:14.423Z,5.88
2024-03-12T15:48:48.580Z,5.70
2024-03-12T15:51:21.446Z,5.93
2024-03-12T15:53:49.744Z,5.03
2024-03-12T15:56:17.569Z,4.88
2024-03-12T15:58:45.679Z,5.00
2024-03-12T16:01:14.722Z,3.30
2024-03-12T16:03:43.183Z,6.20
2024-03-12T16:06:10.687Z,6.15
2024-03-12T16:08:38.466Z,6.40
2024-03-12T16:11:05.831Z,4.35
2024-03-12T16:13:33.375Z,6.03
2024-03-12T16:16:01.034Z,5.07
2024-03-12T16:18:28.314Z,6.30
2024-03-12T16:20:56.725Z,6.03
2024-03-12T16:23:24.155Z,3.80
2024-03-12T16:25:51.349Z,5.38
2024-03-12T16:28:19.300Z,3.35
2024-03-12T16:30:46.950Z,5.13
2024-03-12T16:33:14.556Z,5.68
2024-03-12T16:35:41.820Z,7.07
2024-03-12T16:38:09.076Z,9.70
2024-03-12T16:40:37.030Z,5.75
2024-03-12T16:43:05.880Z,8.15
2024-03-12T16:45:33.155Z,6.68
2024-03-12T16:48:02.688Z,11.40
2024-03-12T16:50:30.056Z,6.55
2024-03-12T16:52:57.345Z,6.30
2024-03-12T16:55:25.002Z,8.95
2024-03-12T16:57:52.656Z,6.47
2024-03-12T17:00:20.313Z,7.15
2024-03-12T17:02:48.132Z,6.50
2024-03-12T17:05:26.147Z,10.23
2024-03-12T17:07:58.275Z,10.25
2024-03-12T17:10:27.147Z,10.82
2024-03-12T17:12:55.405Z,9.45
2024-03-12T17:15:24.849Z,6.50
2024-03-12T17:17:52.877Z,10.80
2024-03-12T17:20:20.291Z,7.40
2024-03-12T17:22:48.612Z,7.35
2024-03-12T17:25:18.589Z,6.47
2024-03-12T17:27:48.801Z,8.75
2024-03-12T17:30:16.556Z,7.47
2024-03-12T17:32:47.355Z,7.25
2024-03-12T17:35:16.272Z,7.65
2024-03-12T17:37:45.087Z,5.22
2024-03-12T17:40:16.124Z,4.18
2024-03-12T17:42:45.554Z,8.45
2024-03-12T17:45:14.063Z,6.45
2024-03-12T17:47:48.743Z,6.78
2024-03-12T17:50:24.232Z,7.32
2024-03-12T17:52:59.116Z,9.10
2024-03-12T17:55:29.599Z,8.90
2024-03-12T17:57:59.729Z,7.75
2024-03-12T18:00:28.434Z,6.30
2024-03-12T18:02:58.028Z,10.23
2024-03-12T18:05:25.989Z,9.00
2024-03-12T18:07:53.650Z,9.63
2024-03-12T18:10:24.146Z,7.05
2024-03-12T18:12:51.848Z,8.63
2024-03-12T18:15:21.584Z,6.47
2024-03-12T18:17:49.173Z,6.75
2024-03-12T18:20:31.401Z,8.45
2024-03-12T18:22:59.764Z,10.75
2024-03-12T18:25:27.139Z,8.10
2024-03-12T18:27:58.151Z,4.90
2024-03-12T18:30:26.807Z,6.45
2024-03-12T18:32:55.777Z,6.68
2024-03-12T18:35:23.456Z,6.40
2024-03-12T18:37:52.295Z,10.90
2024-03-12T18:40:20.997Z,5.70
2024-03-12T18:42:54.796Z,6.63
2024-03-12T18:45:25.599Z,5.70
2024-03-12T18:47:56.800Z,6.75
2024-03-12T18:50:29.809Z,9.25
2024-03-12T18:53:02.621Z,6.70
2024-03-12T18:55:32.683Z,6.53
2024-03-12T18:58:03.509Z,7.13
2024-03-12T19:00:37.342Z,8.48
2024-03-12T19:03:16.701Z,11.15
2024-03-12T19:05:50.438Z,8.25
2024-03-12T19:10:52.946Z,7.57
2024-03-12T19:13:25.324Z,9.50
2024-03-12T19:15:55.050Z,14.23
2024-03-12T19:18:28.097Z,5.80
2024-03-12T19:20:58.006Z,6.03
2024-03-12T19:23:27.806Z,7.90
2024-03-12T19:25:59.795Z,8.35
2024-03-12T19:28:29.914Z,6.55
2024-03-12T19:33:48.396Z,8.85
2024-03-12T19:36:29.678Z,9.32
2024-03-12T19:38:58.452Z,7.57
2024-03-12T19:41:26.191Z,9.02
2024-03-12T19:43:54.735Z,9.20
2024-03-12T19:46:22.450Z,6.90
2024-03-12T19:48:49.942Z,6.45
2024-03-12T19:51:18.765Z,8.15
2024-03-12T19:53:46.491Z,7.13
2024-03-12T19:56:14.123Z,9.30
2024-03-12T19:58:41.442Z,7.20
2024-03-12T20:01:11.820Z,4.68
2024-03-12T20:03:39.354Z,6.57
2024-03-12T20:06:06.863Z,5.57
2024-03-12T20:08:34.354Z,6.95
2024-03-12T20:11:01.775Z,7.72
2024-03-12T20:13:44.648Z,3.78
2024-03-12T20:16:15.879Z,7.97
2024-03-12T20:18:44.642Z,6.07
2024-03-12T20:21:12.488Z,5.40
2024-03-12T20:23:40.837Z,7.60
2024-03-12T20:26:08.183Z,9.10
2024-03-12T20:28:35.903Z,5.93
2024-03-12T20:31:04.161Z,9.43
2024-03-12T20:33:32.584Z,8.13
2024-03-12T20:36:02.688Z,9.73
2024-03-12T20:38:30.257Z,8.50
2024-03-12T20:40:57.613Z,9.10
2024-03-12T20:43:25.066Z,9.68
2024-03-12T20:45:52.545Z,7.00
2024-03-12T20:48:19.956Z,10.98
2024-03-12T20:50:47.450Z,11.73
2024-03-12T20:53:15.577Z,9.48
2024-03-12T20:55:43.240Z,8.38
2024-03-12T20:58:10.741Z,15.77
2024-03-12T21:00:39.404Z,9.57
2024-03-12T21:03:10.823Z,11.80
2024-03-12T21:05:39.295Z,10.43
2024-03-12T21:08:08.508Z,9.10
2024-03-12T21:10:36.051Z,9.80
2024-03-12T21:13:03.466Z,9.10
2024-03-12T21:15:31.029Z,10.32
2024-03-12T21:17:58.500Z,11.63
2024-03-12T21:20:29.341Z,13.02
2024-03-12T21:22:56.826Z,11.23
2024-03-12T21:25:24.219Z,8.93
2024-03-12T21:27:54.716Z,11.13
2024-03-12T21:30:25.266Z,8.80
2024-03-12T21:32:54.746Z,12.80
2024-03-12T21:35:25.185Z,10.05
2024-03-12T21:37:55.837Z,8.88
2024-03-12T21:40:24.241Z,8.50
2024-03-12T21:42:51.874Z,9.18
2024-03-12T21:45:20.595Z,8.18
2024-03-12T21:47:49.158Z,9.73
2024-03-12T21:50:17.664Z,9.60
2024-03-12T21:52:46.590Z,11.57
2024-03-12T21:55:14.742Z,8.48
2024-03-12T21:57:44.940Z,8.07
2024-03-12T22:00:20.604Z,9.85
2024-03-12T22:02:49.840Z,8.55
2024-03-12T22:05:17.963Z,8.48
2024-03-12T22:07:45.874Z,8.57
2024-03-12T22:10:13.874Z,8.73
2024-03-12T22:12:42.276Z,9.00
2024-03-12T22:15:13.261Z,9.27
2024-03-12T22:17:44.250Z,7.28
2024-03-12T22:20:20.135Z,7.82
2024-03-12T22:22:50.853Z,9.55
2024-03-12T22:25:19.952Z,8.23
2024-03-12T22:27:49.662Z,7.05
2024-03-12T22:30:18.095Z,7.72
2024-03-12T22:32:46.469Z,8.55
2024-03-12T22:35:14.206Z,7.05
2024-03-12T22:37:44.920Z,6.43
2024-03-12T22:40:13.959Z,8.88
2024-03-12T22:42:42.175Z,9.48
2024-03-12T22:45:12.894Z,10.75
2024-03-12T22:47:41.091Z,9.43
2024-03-12T22:50:10.181Z,8.52
2024-03-12T22:52:38.194Z,6.32
2024-03-12T22:55:09.071Z,8.75
2024-03-12T22:57:40.033Z,7.60
2024-03-12T23:00:28.907Z,8.32
2024-03-12T23:03:01.468Z,8.75
2024-03-12T23:05:29.478Z,8.87
2024-03-12T23:07:58.568Z,8.00
2024-03-12T23:10:26.328Z,7.28
2024-03-12T23:12:58.062Z,7.63
2024-03-12T23:15:27.217Z,9.13
2024-03-12T23:17:55.681Z,7.95
2024-03-12T23:20:24.095Z,8.90
2024-03-12T23:22:52.685Z,7.38
2024-03-12T23:25:23.390Z,6.90
2024-03-12T23:27:51.257Z,7.43
2024-03-12T23:30:18.646Z,14.27
2024-03-12T23:32:46.543Z,6.97
2024-03-12T23:35:13.899Z,8.07
2024-03-12T23:37:45.005Z,8.63
2024-03-12T23:40:12.455Z,10.27
2024-03-12T23:42:39.823Z,10.95
2024-03-12T23:45:10.826Z,8.63
2024-03-12T23:47:38.508Z,6.65
2024-03-12T23:50:08.983Z,6.57
2024-03-12T23:52:36.707Z,6.88
2024-03-12T23:55:05.190Z,9.73
2024-03-12T23:57:33.020Z,7.78
